Tecumseh, Missouri
Current Conditions -  °F | °C
As of 10:53 AM on Tuesday 27 Jan 2015 (Local Time) from KBPK Reporting Station
Clear Clear  
Wind Chill: 50°   Ceiling: Unl
Heat Index: 50°   Visibility: 10mi
Dew Point: 35°   Wind: 3mph
Humidity: 57%   Direction: NA
Pressure: 30.16"   Gusts: NA
Location:  36.59°N, 92.29°W
Report Text: KBPK 271653Z AUTO VRB03KT 10SM CLR 10/02 A3016 RMK AO2 SLP213 T01000017
Loading
Personal Weather Stations






























Interactive Weather Map New forecast layout! Learn more

10-Day Weather Forecast

Advertisements
Track Severe Weather on mobile